sensor_id;sensor_type;location;lat;lon;timestamp;temperature;humidity
5924;DHT22;2987;50.884;14.818;2023-04-24T02:17:36;10.60;99.90
5924;DHT22;2987;50.884;14.818;2023-04-24T02:20:05;10.50;99.90
5924;DHT22;2987;50.884;14.818;2023-04-24T02:22:31;10.50;99.90
5924;DHT22;2987;50.884;14.818;2023-04-24T02:25:01;10.40;99.90
5924;DHT22;2987;50.884;14.818;2023-04-24T02:27:27;10.40;99.90
5924;DHT22;2987;50.884;14.818;2023-04-24T02:29:53;10.50;99.90
5924;DHT22;2987;50.884;14.818;2023-04-24T02:32:19;10.50;99.90
5924;DHT22;2987;50.884;14.818;2023-04-24T02:34:46;10.60;99.90
5924;DHT22;2987;50.884;14.818;2023-04-24T02:37:12;10.70;99.90
5924;DHT22;2987;50.884;14.818;2023-04-24T02:39:38;10.70;99.90
5924;DHT22;2987;50.884;14.818;2023-04-24T02:42:04;10.80;99.90
5924;DHT22;2987;50.884;14.818;2023-04-24T02:44:31;11.00;99.90
5924;DHT22;2987;50.884;14.818;2023-04-24T02:46:57;10.80;99.90
5924;DHT22;2987;50.884;14.818;2023-04-24T02:49:23;10.70;99.90
5924;DHT22;2987;50.884;14.818;2023-04-24T02:51:49;10.80;99.90
5924;DHT22;2987;50.884;14.818;2023-04-24T02:54:15;10.80;99.90
5924;DHT22;2987;50.884;14.818;2023-04-24T02:56:40;10.70;99.90
5924;DHT22;2987;50.884;14.818;2023-04-24T02:59:08;10.70;99.90
5924;DHT22;2987;50.884;14.818;2023-04-24T03:01:34;10.70;99.90
5924;DHT22;2987;50.884;14.818;2023-04-24T03:04:00;10.70;99.90
5924;DHT22;2987;50.884;14.818;2023-04-24T03:06:26;10.80;99.90
5924;DHT22;2987;50.884;14.818;2023-04-24T03:08:53;10.80;99.90
5924;DHT22;2987;50.884;14.818;2023-04-24T03:11:19;10.80;99.90
5924;DHT22;2987;50.884;14.818;2023-04-24T03:13:45;10.90;99.90
5924;DHT22;2987;50.884;14.818;2023-04-24T03:16:11;10.90;99.90
5924;DHT22;2987;50.884;14.818;2023-04-24T03:18:37;10.90;99.90
5924;DHT22;2987;50.884;14.818;2023-04-24T03:21:05;11.00;99.90
5924;DHT22;2987;50.884;14.818;2023-04-24T03:23:32;11.10;99.90
5924;DHT22;2987;50.884;14.818;2023-04-24T03:25:58;11.30;99.90
5924;DHT22;2987;50.884;14.818;2023-04-24T03:28:24;11.20;99.90
5924;DHT22;2987;50.884;14.818;2023-04-24T03:30:57;11.20;99.90
5924;DHT22;2987;50.884;14.818;2023-04-24T03:33:24;11.30;99.90
5924;DHT22;2987;50.884;14.818;2023-04-24T03:35:59;11.30;99.90
5924;DHT22;2987;50.884;14.818;2023-04-24T03:38:25;11.30;99.90
5924;DHT22;2987;50.884;14.818;2023-04-24T03:40:59;11.30;99.90
5924;DHT22;2987;50.884;14.818;2023-04-24T03:43:45;11.30;99.90
5924;DHT22;2987;50.884;14.818;2023-04-24T03:46:11;11.30;99.90
5924;DHT22;2987;50.884;14.818;2023-04-24T03:48:43;11.30;99.90
5924;DHT22;2987;50.884;14.818;2023-04-24T03:51:10;11.30;99.90
5924;DHT22;2987;50.884;14.818;2023-04-24T03:53:38;11.30;99.90
5924;DHT22;2987;50.884;14.818;2023-04-24T03:56:04;11.30;99.90
5924;DHT22;2987;50.884;14.818;2023-04-24T03:58:32;11.30;99.90
5924;DHT22;2987;50.884;14.818;2023-04-24T04:00:58;11.20;99.90
5924;DHT22;2987;50.884;14.818;2023-04-24T04:03:44;11.20;99.90
5924;DHT22;2987;50.884;14.818;2023-04-24T04:06:10;11.20;99.90
5924;DHT22;2987;50.884;14.818;2023-04-24T04:08:36;11.20;99.90
5924;DHT22;2987;50.884;14.818;2023-04-24T04:11:02;11.20;99.90
5924;DHT22;2987;50.884;14.818;2023-04-24T04:13:28;11.20;99.90
5924;DHT22;2987;50.884;14.818;2023-04-24T04:15:55;11.20;99.90
5924;DHT22;2987;50.884;14.818;2023-04-24T04:18:22;11.20;99.90
5924;DHT22;2987;50.884;14.818;2023-04-24T04:20:49;11.20;99.90
5924;DHT22;2987;50.884;14.818;2023-04-24T04:23:16;11.20;99.90
5924;DHT22;2987;50.884;14.818;2023-04-24T04:25:52;11.20;99.90
5924;DHT22;2987;50.884;14.818;2023-04-24T04:28:21;11.10;99.90
5924;DHT22;2987;50.884;14.818;2023-04-24T04:30:48;11.10;99.90
5924;DHT22;2987;50.884;14.818;2023-04-24T04:33:15;11.10;99.90
5924;DHT22;2987;50.884;14.818;2023-04-24T04:35:42;11.10;99.90
5924;DHT22;2987;50.884;14.818;2023-04-24T04:38:08;11.10;99.90
5924;DHT22;2987;50.884;14.818;2023-04-24T04:40:43;11.10;99.90
5924;DHT22;2987;50.884;14.818;2023-04-24T04:43:11;11.10;99.90
5924;DHT22;2987;50.884;14.818;2023-04-24T04:45:46;11.10;99.90
5924;DHT22;2987;50.884;14.818;2023-04-24T04:48:34;11.10;99.90
5924;DHT22;2987;50.884;14.818;2023-04-24T04:51:00;11.10;99.90
5924;DHT22;2987;50.884;14.818;2023-04-24T04:53:26;11.00;99.90
5924;DHT22;2987;50.884;14.818;2023-04-24T04:55:52;11.10;99.90
5924;DHT22;2987;50.884;14.818;2023-04-24T04:58:21;11.20;99.90
5924;DHT22;2987;50.884;14.818;2023-04-24T05:00:52;11.20;99.90
5924;DHT22;2987;50.884;14.818;2023-04-24T05:03:25;11.20;99.90
5924;DHT22;2987;50.884;14.818;2023-04-24T05:05:57;11.30;99.90
5924;DHT22;2987;50.884;14.818;2023-04-24T05:08:24;11.30;99.90
5924;DHT22;2987;50.884;14.818;2023-04-24T05:10:50;11.30;99.90
5924;DHT22;2987;50.884;14.818;2023-04-24T05:13:16;11.40;99.90
5924;DHT22;2987;50.884;14.818;2023-04-24T05:15:42;11.40;99.90
5924;DHT22;2987;50.884;14.818;2023-04-24T05:18:08;11.50;99.90
5924;DHT22;2987;50.884;14.818;2023-04-24T05:20:34;11.50;99.90
5924;DHT22;2987;50.884;14.818;2023-04-24T05:23:00;11.50;99.90
5924;DHT22;2987;50.884;14.818;2023-04-24T05:25:28;11.50;99.90
5924;DHT22;2987;50.884;14.818;2023-04-24T05:27:58;11.50;99.90
5924;DHT22;2987;50.884;14.818;2023-04-24T05:30:24;11.60;99.90
5924;DHT22;2987;50.884;14.818;2023-04-24T05:32:50;11.70;99.90
5924;DHT22;2987;50.884;14.818;2023-04-24T05:35:16;11.80;99.90
5924;DHT22;2987;50.884;14.818;2023-04-24T05:37:42;11.80;99.90
5924;DHT22;2987;50.884;14.818;2023-04-24T05:40:09;12.00;99.90
5924;DHT22;2987;50.884;14.818;2023-04-24T05:42:36;12.10;99.90
5924;DHT22;2987;50.884;14.818;2023-04-24T05:45:02;12.20;99.90
5924;DHT22;2987;50.884;14.818;2023-04-24T05:47:29;12.30;99.90
5924;DHT22;2987;50.884;14.818;2023-04-24T05:49:55;12.40;99.90
5924;DHT22;2987;50.884;14.818;2023-04-24T05:52:21;12.40;99.90
5924;DHT22;2987;50.884;14.818;2023-04-24T05:54:48;12.50;99.90
5924;DHT22;2987;50.884;14.818;2023-04-24T05:57:19;12.50;99.90
5924;DHT22;2987;50.884;14.818;2023-04-24T05:59:51;12.50;99.90
5924;DHT22;2987;50.884;14.818;2023-04-24T06:02:19;12.60;99.90
5924;DHT22;2987;50.884;14.818;2023-04-24T06:04:45;12.60;99.90
5924;DHT22;2987;50.884;14.818;2023-04-24T06:07:11;12.70;99.90
5924;DHT22;2987;50.884;14.818;2023-04-24T06:09:38;12.70;99.90
5924;DHT22;2987;50.884;14.818;2023-04-24T06:12:04;12.70;99.90
5924;DHT22;2987;50.884;14.818;2023-04-24T06:14:44;12.70;99.90
5924;DHT22;2987;50.884;14.818;2023-04-24T06:17:22;12.70;99.90
5924;DHT22;2987;50.884;14.818;2023-04-24T06:19:48;12.70;99.90
5924;DHT22;2987;50.884;14.818;2023-04-24T06:22:14;12.70;99.90
5924;DHT22;2987;50.884;14.818;2023-04-24T06:24:40;12.70;99.90
5924;DHT22;2987;50.884;14.818;2023-04-24T06:27:07;12.70;99.90
5924;DHT22;2987;50.884;14.818;2023-04-24T06:29:34;12.70;99.90
5924;DHT22;2987;50.884;14.818;2023-04-24T06:31:59;12.70;99.90
5924;DHT22;2987;50.884;14.818;2023-04-24T06:34:25;12.70;99.90
5924;DHT22;2987;50.884;14.818;2023-04-24T06:36:51;12.80;99.90
5924;DHT22;2987;50.884;14.818;2023-04-24T06:39:17;12.80;99.90
5924;DHT22;2987;50.884;14.818;2023-04-24T06:41:43;12.80;99.90
5924;DHT22;2987;50.884;14.818;2023-04-24T06:44:18;12.80;99.90
5924;DHT22;2987;50.884;14.818;2023-04-24T06:46:44;12.80;99.90
5924;DHT22;2987;50.884;14.818;2023-04-24T06:49:10;12.70;99.90
5924;DHT22;2987;50.884;14.818;2023-04-24T06:51:36;12.70;99.90
5924;DHT22;2987;50.884;14.818;2023-04-24T06:54:02;12.70;99.90
5924;DHT22;2987;50.884;14.818;2023-04-24T06:56:28;12.70;99.90
5924;DHT22;2987;50.884;14.818;2023-04-24T06:58:55;12.70;99.90
5924;DHT22;2987;50.884;14.818;2023-04-24T07:01:21;12.70;99.90
5924;DHT22;2987;50.884;14.818;2023-04-24T07:03:46;12.70;99.90
5924;DHT22;2987;50.884;14.818;2023-04-24T07:06:13;12.60;99.90
5924;DHT22;2987;50.884;14.818;2023-04-24T07:08:42;12.60;99.90
5924;DHT22;2987;50.884;14.818;2023-04-24T07:11:08;12.60;99.90
5924;DHT22;2987;50.884;14.818;2023-04-24T07:13:34;12.60;99.90
5924;DHT22;2987;50.884;14.818;2023-04-24T07:16:01;12.60;99.90
5924;DHT22;2987;50.884;14.818;2023-04-24T07:18:27;12.60;99.90
5924;DHT22;2987;50.884;14.818;2023-04-24T07:20:53;12.60;99.90
5924;DHT22;2987;50.884;14.818;2023-04-24T07:23:19;12.60;99.90
5924;DHT22;2987;50.884;14.818;2023-04-24T07:25:45;12.60;99.90
5924;DHT22;2987;50.884;14.818;2023-04-24T07:30:38;12.50;99.90
5924;DHT22;2987;50.884;14.818;2023-04-24T07:33:04;12.50;99.90
5924;DHT22;2987;50.884;14.818;2023-04-24T07:35:30;12.40;99.90
5924;DHT22;2987;50.884;14.818;2023-04-24T07:37:56;12.30;99.90
5924;DHT22;2987;50.884;14.818;2023-04-24T07:42:49;12.30;99.90
5924;DHT22;2987;50.884;14.818;2023-04-24T07:47:42;12.20;99.90
5924;DHT22;2987;50.884;14.818;2023-04-24T07:50:08;12.30;99.90
5924;DHT22;2987;50.884;14.818;2023-04-24T07:52:35;12.20;99.90
5924;DHT22;2987;50.884;14.818;2023-04-24T07:55:00;12.20;99.90
5924;DHT22;2987;50.884;14.818;2023-04-24T07:57:28;12.20;99.90
5924;DHT22;2987;50.884;14.818;2023-04-24T07:59:54;12.20;99.90
5924;DHT22;2987;50.884;14.818;2023-04-24T08:02:21;12.20;99.90
5924;DHT22;2987;50.884;14.818;2023-04-24T08:04:52;12.20;99.90
5924;DHT22;2987;50.884;14.818;2023-04-24T08:07:20;12.40;99.90
5924;DHT22;2987;50.884;14.818;2023-04-24T08:09:46;12.40;99.90
5924;DHT22;2987;50.884;14.818;2023-04-24T08:12:12;12.50;99.90
5924;DHT22;2987;50.884;14.818;2023-04-24T08:14:38;12.70;99.90
5924;DHT22;2987;50.884;14.818;2023-04-24T08:17:04;12.90;99.90
5924;DHT22;2987;50.884;14.818;2023-04-24T08:19:30;13.00;99.90
5924;DHT22;2987;50.884;14.818;2023-04-24T08:21:56;13.10;99.90
5924;DHT22;2987;50.884;14.818;2023-04-24T08:24:22;13.30;99.90
5924;DHT22;2987;50.884;14.818;2023-04-24T08:26:48;13.40;99.90
5924;DHT22;2987;50.884;14.818;2023-04-24T08:29:17;13.50;99.90
5924;DHT22;2987;50.884;14.818;2023-04-24T08:31:43;13.70;99.90
5924;DHT22;2987;50.884;14.818;2023-04-24T08:34:09;13.70;99.90
5924;DHT22;2987;50.884;14.818;2023-04-24T08:36:35;13.80;99.90
5924;DHT22;2987;50.884;14.818;2023-04-24T08:39:01;14.00;99.90
5924;DHT22;2987;50.884;14.818;2023-04-24T08:41:27;14.00;99.90
5924;DHT22;2987;50.884;14.818;2023-04-24T08:43:54;14.00;99.90
5924;DHT22;2987;50.884;14.818;2023-04-24T08:46:20;14.00;99.90
5924;DHT22;2987;50.884;14.818;2023-04-24T08:51:14;14.00;99.90
5924;DHT22;2987;50.884;14.818;2023-04-24T08:53:40;13.90;99.90
5924;DHT22;2987;50.884;14.818;2023-04-24T08:56:07;14.00;99.90
5924;DHT22;2987;50.884;14.818;2023-04-24T08:58:33;13.90;99.90
5924;DHT22;2987;50.884;14.818;2023-04-24T09:00:59;13.90;99.90
5924;DHT22;2987;50.884;14.818;2023-04-24T09:03:27;14.00;99.90
5924;DHT22;2987;50.884;14.818;2023-04-24T09:05:55;14.00;99.90
5924;DHT22;2987;50.884;14.818;2023-04-24T09:08:24;13.90;99.90
5924;DHT22;2987;50.884;14.818;2023-04-24T09:10:50;14.00;99.90
5924;DHT22;2987;50.884;14.818;2023-04-24T09:13:16;14.10;99.90
5924;DHT22;2987;50.884;14.818;2023-04-24T09:15:42;14.10;99.90
5924;DHT22;2987;50.884;14.818;2023-04-24T09:18:08;14.20;99.90
5924;DHT22;2987;50.884;14.818;2023-04-24T09:20:35;14.30;99.90
5924;DHT22;2987;50.884;14.818;2023-04-24T09:23:21;14.30;99.90
5924;DHT22;2987;50.884;14.818;2023-04-24T09:25:54;14.30;99.90
5924;DHT22;2987;50.884;14.818;2023-04-24T09:28:26;14.20;99.90
5924;DHT22;2987;50.884;14.818;2023-04-24T09:31:13;14.30;99.90
5924;DHT22;2987;50.884;14.818;2023-04-24T09:34:03;14.30;99.90
5924;DHT22;2987;50.884;14.818;2023-04-24T09:41:24;14.20;99.90
5924;DHT22;2987;50.884;14.818;2023-04-24T09:43:53;14.30;99.90
5924;DHT22;2987;50.884;14.818;2023-04-24T09:46:19;14.30;99.90
5924;DHT22;2987;50.884;14.818;2023-04-24T09:48:47;14.40;99.90
5924;DHT22;2987;50.884;14.818;2023-04-24T09:51:13;14.30;99.90
5924;DHT22;2987;50.884;14.818;2023-04-24T09:53:45;14.30;99.90
5924;DHT22;2987;50.884;14.818;2023-04-24T09:56:15;14.40;99.90
5924;DHT22;2987;50.884;14.818;2023-04-24T14:00:28;17.50;99.90
5924;DHT22;2987;50.884;14.818;2023-04-24T14:02:55;17.50;99.90
5924;DHT22;2987;50.884;14.818;2023-04-24T14:05:21;17.50;99.90
5924;DHT22;2987;50.884;14.818;2023-04-24T14:07:47;17.30;99.90
5924;DHT22;2987;50.884;14.818;2023-04-24T14:10:13;17.10;99.90
5924;DHT22;2987;50.884;14.818;2023-04-24T14:12:39;16.80;99.90
5924;DHT22;2987;50.884;14.818;2023-04-24T14:15:06;16.70;99.90
5924;DHT22;2987;50.884;14.818;2023-04-24T14:17:32;16.50;99.90
5924;DHT22;2987;50.884;14.818;2023-04-24T14:19:58;16.20;99.90
5924;DHT22;2987;50.884;14.818;2023-04-24T14:22:26;15.80;99.90
5924;DHT22;2987;50.884;14.818;2023-04-24T14:24:52;15.40;99.90
5924;DHT22;2987;50.884;14.818;2023-04-24T14:27:18;15.10;99.90
5924;DHT22;2987;50.884;14.818;2023-04-24T14:29:44;14.60;99.90
5924;DHT22;2987;50.884;14.818;2023-04-24T14:32:11;14.30;99.90
5924;DHT22;2987;50.884;14.818;2023-04-24T14:34:37;14.10;99.90
5924;DHT22;2987;50.884;14.818;2023-04-24T14:37:04;13.80;99.90
5924;DHT22;2987;50.884;14.818;2023-04-24T14:39:30;13.50;99.90
5924;DHT22;2987;50.884;14.818;2023-04-24T14:41:56;13.30;99.90
5924;DHT22;2987;50.884;14.818;2023-04-24T14:44:22;13.20;99.90
5924;DHT22;2987;50.884;14.818;2023-04-24T14:46:48;13.20;99.90
5924;DHT22;2987;50.884;14.818;2023-04-24T14:49:15;13.00;99.90
5924;DHT22;2987;50.884;14.818;2023-04-24T14:51:40;13.00;99.90
5924;DHT22;2987;50.884;14.818;2023-04-24T14:54:08;12.90;99.90
5924;DHT22;2987;50.884;14.818;2023-04-24T14:56:34;12.90;99.90
5924;DHT22;2987;50.884;14.818;2023-04-24T14:59:00;12.80;99.90
5924;DHT22;2987;50.884;14.818;2023-04-24T15:01:26;12.80;99.90
5924;DHT22;2987;50.884;14.818;2023-04-24T15:03:52;12.80;99.90
5924;DHT22;2987;50.884;14.818;2023-04-24T15:06:18;12.70;99.90
5924;DHT22;2987;50.884;14.818;2023-04-24T15:08:45;12.70;99.90
5924;DHT22;2987;50.884;14.818;2023-04-24T15:11:11;12.60;99.90
5924;DHT22;2987;50.884;14.818;2023-04-24T15:13:37;12.60;99.90
5924;DHT22;2987;50.884;14.818;2023-04-24T15:16:03;12.60;99.90
5924;DHT22;2987;50.884;14.818;2023-04-24T15:18:30;12.50;99.90
5924;DHT22;2987;50.884;14.818;2023-04-24T15:20:56;12.40;99.90
5924;DHT22;2987;50.884;14.818;2023-04-24T15:23:22;12.50;99.90
5924;DHT22;2987;50.884;14.818;2023-04-24T15:25:48;12.50;99.90
5924;DHT22;2987;50.884;14.818;2023-04-24T15:28:14;12.50;99.90
5924;DHT22;2987;50.884;14.818;2023-04-24T15:30:41;12.50;99.90
5924;DHT22;2987;50.884;14.818;2023-04-24T15:33:07;12.50;99.90
5924;DHT22;2987;50.884;14.818;2023-04-24T15:35:33;12.50;99.90
5924;DHT22;2987;50.884;14.818;2023-04-24T15:38:00;12.50;99.90
5924;DHT22;2987;50.884;14.818;2023-04-24T15:40:26;12.50;99.90
5924;DHT22;2987;50.884;14.818;2023-04-24T15:42:52;12.50;99.90
5924;DHT22;2987;50.884;14.818;2023-04-24T15:45:18;12.50;99.90
5924;DHT22;2987;50.884;14.818;2023-04-24T15:47:45;12.50;99.90
5924;DHT22;2987;50.884;14.818;2023-04-24T15:50:12;12.50;99.90
5924;DHT22;2987;50.884;14.818;2023-04-24T15:52:39;12.60;99.90
5924;DHT22;2987;50.884;14.818;2023-04-24T15:55:05;12.70;99.90
5924;DHT22;2987;50.884;14.818;2023-04-24T15:57:31;12.90;99.90
5924;DHT22;2987;50.884;14.818;2023-04-24T16:02:23;13.40;99.90
5924;DHT22;2987;50.884;14.818;2023-04-24T16:04:50;13.60;99.90
5924;DHT22;2987;50.884;14.818;2023-04-24T16:07:17;13.80;99.90
5924;DHT22;2987;50.884;14.818;2023-04-24T16:09:44;13.90;99.90
5924;DHT22;2987;50.884;14.818;2023-04-24T16:12:09;14.00;99.90
5924;DHT22;2987;50.884;14.818;2023-04-24T16:14:36;14.10;99.90
5924;DHT22;2987;50.884;14.818;2023-04-24T16:17:02;14.20;99.90
5924;DHT22;2987;50.884;14.818;2023-04-24T16:19:28;14.20;99.90
5924;DHT22;2987;50.884;14.818;2023-04-24T16:21:55;14.30;99.90
5924;DHT22;2987;50.884;14.818;2023-04-24T16:24:23;14.30;99.90
5924;DHT22;2987;50.884;14.818;2023-04-24T16:26:50;14.30;99.90
5924;DHT22;2987;50.884;14.818;2023-04-24T16:29:17;14.30;99.90
5924;DHT22;2987;50.884;14.818;2023-04-24T16:31:44;14.30;99.90
5924;DHT22;2987;50.884;14.818;2023-04-24T16:34:10;14.40;99.90
5924;DHT22;2987;50.884;14.818;2023-04-24T16:36:36;14.40;99.90
5924;DHT22;2987;50.884;14.818;2023-04-24T16:39:03;14.40;99.90
5924;DHT22;2987;50.884;14.818;2023-04-24T16:41:30;14.40;99.90
5924;DHT22;2987;50.884;14.818;2023-04-24T16:43:56;14.30;99.90
5924;DHT22;2987;50.884;14.818;2023-04-24T16:46:23;14.40;99.90
5924;DHT22;2987;50.884;14.818;2023-04-24T16:48:48;14.40;99.90
5924;DHT22;2987;50.884;14.818;2023-04-24T16:51:14;14.40;99.90
5924;DHT22;2987;50.884;14.818;2023-04-24T16:53:40;14.30;99.90
5924;DHT22;2987;50.884;14.818;2023-04-24T16:56:06;14.30;99.90
5924;DHT22;2987;50.884;14.818;2023-04-24T16:58:32;14.20;99.90
5924;DHT22;2987;50.884;14.818;2023-04-24T17:00:58;14.10;99.90
5924;DHT22;2987;50.884;14.818;2023-04-24T17:03:24;14.10;99.90
5924;DHT22;2987;50.884;14.818;2023-04-24T17:08:16;14.00;99.90
5924;DHT22;2987;50.884;14.818;2023-04-24T17:10:42;13.90;99.90
5924;DHT22;2987;50.884;14.818;2023-04-24T17:13:08;13.70;99.90
5924;DHT22;2987;50.884;14.818;2023-04-24T17:15:34;13.60;99.90
5924;DHT22;2987;50.884;14.818;2023-04-24T17:18:01;13.50;99.90
5924;DHT22;2987;50.884;14.818;2023-04-24T17:20:27;13.40;99.90
5924;DHT22;2987;50.884;14.818;2023-04-24T17:22:53;13.40;99.90
5924;DHT22;2987;50.884;14.818;2023-04-24T17:25:19;13.30;99.90
5924;DHT22;2987;50.884;14.818;2023-04-24T17:27:46;13.20;99.90
5924;DHT22;2987;50.884;14.818;2023-04-24T17:30:12;13.10;99.90
5924;DHT22;2987;50.884;14.818;2023-04-24T17:32:39;13.00;99.90
5924;DHT22;2987;50.884;14.818;2023-04-24T17:35:06;13.00;99.90
5924;DHT22;2987;50.884;14.818;2023-04-24T17:37:33;12.90;99.90
5924;DHT22;2987;50.884;14.818;2023-04-24T17:39:59;12.80;99.90
5924;DHT22;2987;50.884;14.818;2023-04-24T17:42:24;12.70;99.90
5924;DHT22;2987;50.884;14.818;2023-04-24T17:44:50;12.60;99.90
5924;DHT22;2987;50.884;14.818;2023-04-24T17:47:17;12.50;99.90
5924;DHT22;2987;50.884;14.818;2023-04-24T17:49:44;12.40;99.90
5924;DHT22;2987;50.884;14.818;2023-04-24T17:52:10;12.30;99.90
5924;DHT22;2987;50.884;14.818;2023-04-24T17:54:36;12.30;99.90
5924;DHT22;2987;50.884;14.818;2023-04-24T17:57:02;12.30;99.90
5924;DHT22;2987;50.884;14.818;2023-04-24T17:59:28;12.20;99.90
5924;DHT22;2987;50.884;14.818;2023-04-24T18:01:54;12.10;99.90
5924;DHT22;2987;50.884;14.818;2023-04-24T18:04:22;12.00;99.90
5924;DHT22;2987;50.884;14.818;2023-04-24T18:06:48;11.90;99.90
5924;DHT22;2987;50.884;14.818;2023-04-24T18:09:14;11.80;99.90
5924;DHT22;2987;50.884;14.818;2023-04-24T18:11:41;11.80;99.90
5924;DHT22;2987;50.884;14.818;2023-04-24T18:14:08;11.70;99.90
5924;DHT22;2987;50.884;14.818;2023-04-24T18:16:34;11.60;99.90
5924;DHT22;2987;50.884;14.818;2023-04-24T18:18:59;11.50;99.90
5924;DHT22;2987;50.884;14.818;2023-04-24T18:21:25;11.50;99.90
5924;DHT22;2987;50.884;14.818;2023-04-24T18:23:53;11.50;99.90
5924;DHT22;2987;50.884;14.818;2023-04-24T18:26:19;11.40;99.90
5924;DHT22;2987;50.884;14.818;2023-04-24T18:28:45;11.40;99.90
5924;DHT22;2987;50.884;14.818;2023-04-24T18:31:11;11.50;99.90
5924;DHT22;2987;50.884;14.818;2023-04-24T18:33:37;11.40;99.90
5924;DHT22;2987;50.884;14.818;2023-04-24T18:36:03;11.40;99.90
5924;DHT22;2987;50.884;14.818;2023-04-24T18:38:29;11.40;99.90
5924;DHT22;2987;50.884;14.818;2023-04-24T18:40:55;11.40;99.90
5924;DHT22;2987;50.884;14.818;2023-04-24T18:45:47;11.40;99.90
5924;DHT22;2987;50.884;14.818;2023-04-24T18:48:13;11.40;99.90
5924;DHT22;2987;50.884;14.818;2023-04-24T18:50:39;11.40;99.90
5924;DHT22;2987;50.884;14.818;2023-04-24T18:53:07;11.30;99.90
5924;DHT22;2987;50.884;14.818;2023-04-24T18:55:34;11.30;99.90
5924;DHT22;2987;50.884;14.818;2023-04-24T18:58:01;11.30;99.90
5924;DHT22;2987;50.884;14.818;2023-04-24T19:00:27;11.40;99.90
5924;DHT22;2987;50.884;14.818;2023-04-24T19:02:53;11.30;99.90
5924;DHT22;2987;50.884;14.818;2023-04-24T19:05:19;11.30;99.90
5924;DHT22;2987;50.884;14.818;2023-04-24T19:07:45;11.30;99.90
5924;DHT22;2987;50.884;14.818;2023-04-24T19:10:11;11.30;99.90
5924;DHT22;2987;50.884;14.818;2023-04-24T19:12:38;11.30;99.90
5924;DHT22;2987;50.884;14.818;2023-04-24T19:15:04;11.30;99.90
5924;DHT22;2987;50.884;14.818;2023-04-24T19:17:30;11.30;99.90
5924;DHT22;2987;50.884;14.818;2023-04-24T19:19:56;11.30;99.90
5924;DHT22;2987;50.884;14.818;2023-04-24T19:22:22;11.30;99.90
5924;DHT22;2987;50.884;14.818;2023-04-24T19:24:48;11.30;99.90
5924;DHT22;2987;50.884;14.818;2023-04-24T19:27:14;11.30;99.90
5924;DHT22;2987;50.884;14.818;2023-04-24T19:29:40;11.40;99.90
5924;DHT22;2987;50.884;14.818;2023-04-24T19:32:07;11.30;99.90
5924;DHT22;2987;50.884;14.818;2023-04-24T19:34:33;11.30;99.90
5924;DHT22;2987;50.884;14.818;2023-04-24T19:36:59;11.30;99.90
5924;DHT22;2987;50.884;14.818;2023-04-24T19:39:25;11.30;99.90
5924;DHT22;2987;50.884;14.818;2023-04-24T19:41:51;11.40;99.90
5924;DHT22;2987;50.884;14.818;2023-04-24T19:44:17;11.30;99.90
5924;DHT22;2987;50.884;14.818;2023-04-24T19:46:45;11.30;99.90
5924;DHT22;2987;50.884;14.818;2023-04-24T19:49:11;11.30;99.90
5924;DHT22;2987;50.884;14.818;2023-04-24T19:51:39;11.30;99.90
5924;DHT22;2987;50.884;14.818;2023-04-24T19:54:05;11.30;99.90
5924;DHT22;2987;50.884;14.818;2023-04-24T19:56:32;11.30;99.90
5924;DHT22;2987;50.884;14.818;2023-04-24T19:58:57;11.30;99.90
5924;DHT22;2987;50.884;14.818;2023-04-24T20:01:23;11.30;99.90
5924;DHT22;2987;50.884;14.818;2023-04-24T20:03:50;11.30;99.90
5924;DHT22;2987;50.884;14.818;2023-04-24T20:06:16;11.30;99.90
5924;DHT22;2987;50.884;14.818;2023-04-24T20:08:42;11.20;99.90
5924;DHT22;2987;50.884;14.818;2023-04-24T20:11:09;11.20;99.90
5924;DHT22;2987;50.884;14.818;2023-04-24T20:16:01;11.10;99.90
5924;DHT22;2987;50.884;14.818;2023-04-24T20:18:27;11.00;99.90
5924;DHT22;2987;50.884;14.818;2023-04-24T20:20:53;11.00;99.90
5924;DHT22;2987;50.884;14.818;2023-04-24T20:23:22;10.90;99.90
5924;DHT22;2987;50.884;14.818;2023-04-24T20:25:48;10.60;99.90
5924;DHT22;2987;50.884;14.818;2023-04-24T20:28:14;10.80;99.90
5924;DHT22;2987;50.884;14.818;2023-04-24T20:30:41;10.80;99.90
5924;DHT22;2987;50.884;14.818;2023-04-24T20:33:07;10.80;99.90
5924;DHT22;2987;50.884;14.818;2023-04-24T20:35:33;10.70;99.90
5924;DHT22;2987;50.884;14.818;2023-04-24T20:38:00;10.70;99.90
5924;DHT22;2987;50.884;14.818;2023-04-24T20:40:27;10.60;99.90
5924;DHT22;2987;50.884;14.818;2023-04-24T20:42:54;10.60;99.90
5924;DHT22;2987;50.884;14.818;2023-04-24T20:45:22;10.80;99.90
5924;DHT22;2987;50.884;14.818;2023-04-24T20:47:48;10.50;99.90
5924;DHT22;2987;50.884;14.818;2023-04-24T20:50:14;10.40;99.90
5924;DHT22;2987;50.884;14.818;2023-04-24T20:52:40;10.40;99.90
5924;DHT22;2987;50.884;14.818;2023-04-24T20:55:06;10.30;99.90
5924;DHT22;2987;50.884;14.818;2023-04-24T20:57:33;10.20;99.90
5924;DHT22;2987;50.884;14.818;2023-04-24T20:59:58;10.20;99.90
5924;DHT22;2987;50.884;14.818;2023-04-24T21:02:24;10.10;99.90
5924;DHT22;2987;50.884;14.818;2023-04-24T21:04:50;10.20;99.90
5924;DHT22;2987;50.884;14.818;2023-04-24T21:07:16;10.00;99.90
5924;DHT22;2987;50.884;14.818;2023-04-24T21:09:42;10.00;99.90
5924;DHT22;2987;50.884;14.818;2023-04-24T21:12:08;9.90;99.90
5924;DHT22;2987;50.884;14.818;2023-04-24T21:14:34;10.00;99.90
5924;DHT22;2987;50.884;14.818;2023-04-24T21:17:00;9.90;99.90
5924;DHT22;2987;50.884;14.818;2023-04-24T21:19:27;9.90;99.90
5924;DHT22;2987;50.884;14.818;2023-04-24T21:21:53;9.90;99.90
5924;DHT22;2987;50.884;14.818;2023-04-24T21:24:19;9.80;99.90
5924;DHT22;2987;50.884;14.818;2023-04-24T21:26:45;9.90;99.90
5924;DHT22;2987;50.884;14.818;2023-04-24T21:29:11;9.90;99.90
5924;DHT22;2987;50.884;14.818;2023-04-24T21:31:37;10.00;99.90
5924;DHT22;2987;50.884;14.818;2023-04-24T21:34:03;9.80;99.90
5924;DHT22;2987;50.884;14.818;2023-04-24T21:36:29;9.80;99.90
5924;DHT22;2987;50.884;14.818;2023-04-24T21:38:55;9.70;99.90
5924;DHT22;2987;50.884;14.818;2023-04-24T21:41:21;9.70;99.90
5924;DHT22;2987;50.884;14.818;2023-04-24T21:43:47;9.80;99.90
5924;DHT22;2987;50.884;14.818;2023-04-24T21:46:13;9.50;99.90
5924;DHT22;2987;50.884;14.818;2023-04-24T21:48:39;9.60;99.90
5924;DHT22;2987;50.884;14.818;2023-04-24T21:51:05;9.40;99.90
5924;DHT22;2987;50.884;14.818;2023-04-24T21:53:31;9.60;99.90
5924;DHT22;2987;50.884;14.818;2023-04-24T21:55:56;9.50;99.90
5924;DHT22;2987;50.884;14.818;2023-04-24T21:58:23;9.40;99.90
5924;DHT22;2987;50.884;14.818;2023-04-24T22:00:49;9.20;99.90
5924;DHT22;2987;50.884;14.818;2023-04-24T22:03:15;9.50;99.90
5924;DHT22;2987;50.884;14.818;2023-04-24T22:05:41;9.30;99.90
5924;DHT22;2987;50.884;14.818;2023-04-24T22:08:08;9.20;99.90
5924;DHT22;2987;50.884;14.818;2023-04-24T22:10:35;9.00;99.90
5924;DHT22;2987;50.884;14.818;2023-04-24T22:13:02;9.00;99.90
5924;DHT22;2987;50.884;14.818;2023-04-24T22:17:54;9.20;99.90
5924;DHT22;2987;50.884;14.818;2023-04-24T22:20:22;9.30;99.90
5924;DHT22;2987;50.884;14.818;2023-04-24T22:22:48;9.10;99.90
5924;DHT22;2987;50.884;14.818;2023-04-24T22:25:14;8.80;99.90
5924;DHT22;2987;50.884;14.818;2023-04-24T22:27:40;8.90;99.90
5924;DHT22;2987;50.884;14.818;2023-04-24T22:30:07;9.00;99.90